Time;durP1;ratioP1;P1;durP2;ratioP2;P2;SDS_P1;SDS_P2;PMS_P1;PMS_P2;Temp;Humidity;BMP_temperature;BMP_pressure;BME280_temperature;BME280_humidity;BME280_pressure;Samples;Min_cycle;Max_cycle;Signal;HPM_P1;HPM_P2
2023/04/23 00:02:28;;;;;;;27.53;20.63;;;11.00;99.90;;;;;;5114092;28;20241;-70
2023/04/23 00:05:03;;;;;;;28.40;20.97;;;10.90;99.90;;;;;;5115210;28;20177;-70
2023/04/23 00:07:30;;;;;;;31.47;21.57;;;10.80;99.90;;;;;;5114446;28;20542;-69
2023/04/23 00:09:57;;;;;;;33.00;22.10;;;10.80;99.90;;;;;;5113891;28;20183;-69
2023/04/23 00:12:23;;;;;;;32.07;22.73;;;10.70;99.90;;;;;;5113810;28;20199;-69
2023/04/23 00:14:49;;;;;;;32.07;23.60;;;10.70;99.90;;;;;;5114924;28;20188;-69
2023/04/23 00:17:15;;;;;;;36.17;25.87;;;10.70;99.90;;;;;;5115288;28;20237;-70
2023/04/23 00:19:41;;;;;;;36.10;24.50;;;10.70;99.90;;;;;;5115867;27;20636;-70
2023/04/23 00:22:06;;;;;;;34.30;23.00;;;10.70;99.90;;;;;;5113838;28;20234;-70
2023/04/23 00:24:35;;;;;;;33.73;23.27;;;10.80;99.90;;;;;;5115377;28;20168;-70
2023/04/23 00:27:01;;;;;;;33.00;22.80;;;10.80;99.90;;;;;;5115430;28;20180;-70
2023/04/23 00:29:27;;;;;;;33.57;23.67;;;10.80;99.90;;;;;;5113610;28;20218;-70
2023/04/23 00:31:53;;;;;;;30.80;21.73;;;10.70;99.90;;;;;;5113487;28;20193;-70
2023/04/23 00:34:18;;;;;;;35.67;23.63;;;10.70;99.90;;;;;;5113529;28;20552;-70
2023/04/23 00:36:44;;;;;;;35.63;23.97;;;10.70;99.90;;;;;;5114786;28;20618;-70
2023/04/23 00:39:10;;;;;;;36.00;24.65;;;10.70;99.90;;;;;;5112656;28;20191;-70
2023/04/23 00:41:36;;;;;;;35.13;23.60;;;10.70;99.90;;;;;;5115182;28;20207;-70
2023/04/23 00:44:02;;;;;;;34.70;24.70;;;10.60;99.90;;;;;;5114779;28;20533;-69
2023/04/23 00:46:28;;;;;;;37.90;24.53;;;10.60;99.90;;;;;;5113360;28;20196;-70
2023/04/23 00:48:54;;;;;;;35.83;23.77;;;10.60;99.90;;;;;;5114532;28;20164;-70
2023/04/23 00:51:23;;;;;;;35.13;24.50;;;10.50;99.90;;;;;;5114424;28;20175;-70
2023/04/23 00:53:49;;;;;;;36.47;24.87;;;10.50;99.90;;;;;;5113054;28;20204;-70
2023/04/23 00:56:17;;;;;;;37.40;25.37;;;10.50;99.90;;;;;;5112860;28;20743;-70
2023/04/23 00:58:43;;;;;;;34.80;23.37;;;10.40;99.90;;;;;;5113089;28;20176;-70
2023/04/23 01:01:11;;;;;;;36.53;25.03;;;10.40;99.90;;;;;;5114205;28;20188;-70
2023/04/23 01:03:39;;;;;;;36.07;24.90;;;10.40;99.90;;;;;;5114258;28;20192;-70
2023/04/23 01:06:05;;;;;;;40.13;25.00;;;10.40;99.90;;;;;;5113379;28;20211;-74
2023/04/23 01:08:32;;;;;;;37.43;25.77;;;10.40;99.90;;;;;;5114813;28;20567;-74
2023/04/23 01:10:59;;;;;;;41.53;25.60;;;10.30;99.90;;;;;;5114653;28;20175;-74
2023/04/23 01:13:28;;;;;;;40.13;26.63;;;10.30;99.90;;;;;;5114749;28;20652;-74
2023/04/23 01:15:54;;;;;;;39.63;24.97;;;10.30;99.90;;;;;;5112849;28;20196;-74
2023/04/23 01:18:21;;;;;;;42.60;26.73;;;10.20;99.90;;;;;;5112883;28;20180;-74
2023/04/23 01:20:48;;;;;;;40.70;27.40;;;10.20;99.90;;;;;;5112855;28;20180;-73
2023/04/23 01:23:15;;;;;;;42.33;26.10;;;10.10;99.90;;;;;;5114065;28;20266;-74
2023/04/23 01:25:42;;;;;;;39.07;25.43;;;10.20;99.90;;;;;;5112834;28;20210;-74
2023/04/23 01:28:09;;;;;;;36.90;24.77;;;10.20;99.90;;;;;;5112836;28;20177;-74
2023/04/23 01:30:35;;;;;;;39.87;25.97;;;10.10;99.90;;;;;;5116249;28;20167;-73
2023/04/23 01:33:03;;;;;;;36.67;25.17;;;10.20;99.90;;;;;;5112747;28;20777;-74
2023/04/23 01:35:30;;;;;;;36.97;25.40;;;10.20;99.90;;;;;;5112506;28;20208;-74
2023/04/23 01:37:57;;;;;;;35.70;23.93;;;10.20;99.90;;;;;;5112628;28;20562;-74
2023/04/23 01:40:23;;;;;;;39.57;25.13;;;10.10;99.90;;;;;;5114023;28;20172;-74
2023/04/23 01:42:49;;;;;;;39.73;25.77;;;10.10;99.90;;;;;;5113911;28;20337;-74
2023/04/23 01:45:18;;;;;;;35.83;24.77;;;10.20;99.90;;;;;;5114248;28;20196;-74
2023/04/23 01:47:44;;;;;;;37.53;25.20;;;10.20;99.90;;;;;;5113924;28;20164;-74
2023/04/23 01:50:10;;;;;;;41.28;26.63;;;10.20;99.90;;;;;;5113924;28;20165;-74
2023/04/23 01:52:36;;;;;;;38.77;26.10;;;10.10;99.90;;;;;;5117921;28;20179;-74
2023/04/23 01:55:02;;;;;;;39.77;25.03;;;10.10;99.90;;;;;;5116869;28;20228;-74
2023/04/23 01:57:28;;;;;;;37.80;25.42;;;10.10;99.90;;;;;;5116685;28;20263;-74
2023/04/23 02:00:07;;;;;;;38.33;24.67;;;10.10;99.90;;;;;;5116516;28;20568;-74
2023/04/23 02:02:34;;;;;;;38.90;26.00;;;10.10;99.90;;;;;;5117686;28;20216;-74
2023/04/23 02:05:04;;;;;;;37.67;24.73;;;10.10;99.90;;;;;;5117835;28;20629;-74
2023/04/23 02:07:33;;;;;;;35.53;24.30;;;10.10;99.90;;;;;;5116503;28;20176;-74
2023/04/23 02:10:00;;;;;;;40.53;26.37;;;10.10;99.90;;;;;;5117849;28;20194;-74
2023/04/23 02:12:26;;;;;;;38.33;25.00;;;10.10;99.90;;;;;;5117551;28;20539;-74
2023/04/23 02:14:52;;;;;;;36.30;24.03;;;10.00;99.90;;;;;;5117573;28;20169;-74
2023/04/23 02:17:20;;;;;;;39.85;25.08;;;10.10;99.90;;;;;;5116305;28;20180;-74
2023/04/23 02:19:46;;;;;;;37.30;25.13;;;10.00;99.90;;;;;;5116235;28;20183;-74
2023/04/23 02:22:12;;;;;;;38.75;25.13;;;10.00;99.90;;;;;;5117244;28;20192;-74
2023/04/23 02:24:37;;;;;;;37.37;24.47;;;10.10;99.90;;;;;;5117214;28;20226;-74
2023/04/23 02:27:03;;;;;;;40.20;24.57;;;10.00;99.90;;;;;;5115985;28;20272;-74
2023/04/23 02:29:30;;;;;;;39.53;25.20;;;10.00;99.90;;;;;;5116119;28;20552;-74
2023/04/23 02:31:55;;;;;;;37.53;24.57;;;10.00;99.90;;;;;;5117160;28;20538;-74
2023/04/23 02:34:21;;;;;;;33.83;22.83;;;10.00;99.90;;;;;;5115943;28;20184;-74
2023/04/23 02:36:47;;;;;;;33.97;23.13;;;10.00;99.90;;;;;;5117321;28;20246;-74
2023/04/23 02:39:12;;;;;;;36.47;23.58;;;10.00;99.90;;;;;;5115925;28;20179;-74
2023/04/23 02:41:38;;;;;;;37.90;23.92;;;10.10;99.90;;;;;;5116975;28;20226;-74
2023/04/23 02:44:04;;;;;;;34.40;22.95;;;10.10;99.90;;;;;;5115799;28;20586;-74
2023/04/23 02:46:30;;;;;;;37.10;24.57;;;10.10;99.90;;;;;;5116960;28;20188;-74
2023/04/23 02:48:56;;;;;;;33.88;23.50;;;10.20;99.90;;;;;;5115729;28;20169;-74
2023/04/23 02:51:22;;;;;;;33.65;22.48;;;10.10;99.90;;;;;;5116928;28;20180;-74
2023/04/23 02:53:48;;;;;;;30.08;22.15;;;10.10;99.90;;;;;;5116816;28;20180;-74
2023/04/23 02:56:13;;;;;;;34.88;23.65;;;10.00;99.90;;;;;;5115464;28;20287;-74
2023/04/23 02:58:39;;;;;;;32.78;22.08;;;10.00;99.90;;;;;;5115536;28;20193;-74
2023/04/23 03:01:05;;;;;;;32.88;22.70;;;9.90;99.90;;;;;;5115188;28;20208;-73
2023/04/23 03:03:32;;;;;;;29.63;20.70;;;9.90;99.90;;;;;;5115314;28;20200;-74
2023/04/23 03:06:00;;;;;;;31.80;21.10;;;9.90;99.90;;;;;;5116498;27;20205;-74
2023/04/23 03:08:26;;;;;;;30.58;20.88;;;10.00;99.90;;;;;;5115265;28;20225;-74
2023/04/23 03:10:52;;;;;;;30.02;21.13;;;9.90;99.90;;;;;;5116539;28;20173;-74
2023/04/23 03:13:17;;;;;;;29.52;20.35;;;10.00;99.90;;;;;;5116808;27;20172;-74
2023/04/23 03:15:43;;;;;;;30.92;21.50;;;9.90;99.90;;;;;;5116291;28;20196;-74
2023/04/23 03:18:09;;;;;;;25.60;18.70;;;9.80;99.90;;;;;;5116260;28;20172;-74
2023/04/23 03:20:36;;;;;;;27.95;20.13;;;9.80;99.90;;;;;;5115092;28;20286;-74
2023/04/23 03:23:05;;;;;;;31.02;20.42;;;9.80;99.90;;;;;;5116493;28;20283;-74
2023/04/23 03:25:31;;;;;;;27.95;19.92;;;9.80;99.90;;;;;;5116994;28;20656;-74
2023/04/23 03:27:57;;;;;;;28.17;19.25;;;9.80;99.90;;;;;;5115717;28;20271;-74
2023/04/23 03:30:23;;;;;;;32.63;21.20;;;9.80;99.90;;;;;;5116842;28;20242;-74
2023/04/23 03:32:49;;;;;;;25.73;18.67;;;9.80;99.90;;;;;;5116515;28;20551;-74
2023/04/23 03:35:15;;;;;;;27.02;19.35;;;9.80;99.90;;;;;;5114874;27;20240;-74
2023/04/23 03:37:41;;;;;;;27.50;19.27;;;9.80;99.90;;;;;;5116186;28;20173;-74
2023/04/23 03:40:08;;;;;;;28.48;18.98;;;9.80;99.90;;;;;;5114762;28;20184;-74
2023/04/23 03:42:34;;;;;;;27.70;18.85;;;9.80;99.90;;;;;;5115926;28;20224;-74
2023/04/23 03:45:00;;;;;;;24.80;18.65;;;9.80;99.90;;;;;;5115894;28;20230;-74
2023/04/23 03:47:26;;;;;;;25.52;17.90;;;9.80;99.90;;;;;;5115886;28;20249;-74
2023/04/23 03:49:53;;;;;;;27.85;19.77;;;9.70;99.90;;;;;;5116137;28;20632;-74
2023/04/23 03:52:19;;;;;;;28.08;19.13;;;9.70;99.90;;;;;;5114822;28;20173;-74
2023/04/23 03:54:45;;;;;;;27.13;18.35;;;9.70;99.90;;;;;;5115879;28;20176;-70
2023/04/23 03:57:13;;;;;;;24.63;17.60;;;9.70;99.90;;;;;;5116167;28;20186;-70
2023/04/23 03:59:39;;;;;;;24.67;17.42;;;9.70;99.90;;;;;;5115385;28;20188;-70
2023/04/23 04:02:05;;;;;;;27.23;19.08;;;9.70;99.90;;;;;;5114050;28;20622;-70
2023/04/23 04:04:31;;;;;;;23.05;17.50;;;9.60;99.90;;;;;;5115588;28;20689;-70
2023/04/23 04:06:59;;;;;;;27.60;19.25;;;9.60;99.90;;;;;;5115357;28;20196;-70
2023/04/23 04:09:25;;;;;;;27.23;18.95;;;9.60;99.90;;;;;;5115959;28;20589;-70
2023/04/23 04:11:52;;;;;;;27.70;18.15;;;9.60;99.90;;;;;;5115449;27;20255;-70
2023/04/23 04:14:19;;;;;;;26.50;18.40;;;9.70;99.90;;;;;;5113989;28;20279;-70
2023/04/23 04:16:45;;;;;;;28.65;19.55;;;9.70;99.90;;;;;;5113711;28;20714;-70
2023/04/23 04:19:11;;;;;;;24.33;17.83;;;9.60;99.90;;;;;;5115483;28;20177;-70
2023/04/23 04:21:37;;;;;;;25.27;17.95;;;9.60;99.90;;;;;;5115613;28;20180;-70
2023/04/23 04:24:03;;;;;;;25.97;18.17;;;9.60;99.90;;;;;;5114893;28;20182;-70
2023/04/23 04:26:39;;;;;;;25.30;17.83;;;9.50;99.90;;;;;;5114834;28;20236;-70
2023/04/23 04:29:05;;;;;;;27.33;18.88;;;9.50;99.90;;;;;;5113774;28;20624;-70
2023/04/23 04:31:31;;;;;;;28.42;20.40;;;9.50;99.90;;;;;;5113571;28;20188;-70
2023/04/23 04:33:57;;;;;;;29.40;19.67;;;9.50;99.90;;;;;;5114859;28;20255;-69
2023/04/23 04:36:25;;;;;;;28.50;19.80;;;9.50;99.90;;;;;;5116322;27;20272;-70
2023/04/23 04:38:54;;;;;;;20.47;16.37;;;9.60;99.90;;;;;;5116582;28;20180;-70
2023/04/23 04:41:21;;;;;;;25.30;18.00;;;9.60;99.90;;;;;;5118400;28;20172;-70
2023/04/23 04:43:47;;;;;;;27.97;18.93;;;9.60;99.90;;;;;;5116390;28;20340;-70
2023/04/23 04:46:14;;;;;;;26.37;18.63;;;9.60;99.90;;;;;;5113515;28;20664;-70
2023/04/23 04:48:40;;;;;;;28.60;19.73;;;9.60;99.90;;;;;;5114698;28;20175;-70
2023/04/23 04:51:06;;;;;;;28.40;19.13;;;9.70;99.90;;;;;;5114641;28;20176;-70
2023/04/23 04:53:32;;;;;;;28.02;19.50;;;9.70;99.90;;;;;;5114724;28;20255;-70
2023/04/23 04:55:58;;;;;;;27.23;19.00;;;9.70;99.90;;;;;;5114444;28;20213;-70
2023/04/23 04:58:24;;;;;;;32.17;20.00;;;9.70;99.90;;;;;;5113652;28;20316;-72
2023/04/23 05:00:50;;;;;;;28.48;20.55;;;9.70;99.90;;;;;;5112952;28;20196;-72
2023/04/23 05:03:19;;;;;;;24.77;18.53;;;9.70;99.90;;;;;;5114238;28;20238;-72
2023/04/23 05:05:47;;;;;;;27.03;18.37;;;9.70;99.90;;;;;;5112918;28;20234;-72
2023/04/23 05:08:15;;;;;;;28.83;18.73;;;9.70;99.90;;;;;;5113116;28;20648;-71
2023/04/23 05:10:42;;;;;;;27.52;19.90;;;9.80;99.90;;;;;;5112822;28;20193;-72
2023/04/23 05:13:08;;;;;;;26.10;18.70;;;9.80;99.90;;;;;;5114526;28;20168;-72
2023/04/23 05:15:34;;;;;;;28.73;18.63;;;9.80;99.90;;;;;;5114515;28;20321;-72
2023/04/23 05:18:02;;;;;;;29.03;20.27;;;9.80;99.90;;;;;;5114161;28;20726;-71
2023/04/23 05:20:28;;;;;;;32.17;20.83;;;9.80;99.90;;;;;;5114242;28;20685;-72
2023/04/23 05:22:54;;;;;;;29.45;19.50;;;9.70;99.90;;;;;;5114063;28;20290;-72
2023/04/23 05:25:20;;;;;;;28.20;19.20;;;9.60;99.90;;;;;;5112230;28;20652;-72
2023/04/23 05:27:45;;;;;;;31.55;20.92;;;9.70;99.90;;;;;;5114396;28;20612;-72
2023/04/23 05:30:11;;;;;;;27.70;20.10;;;9.60;99.90;;;;;;5114560;28;20176;-72
2023/04/23 05:32:37;;;;;;;28.05;20.08;;;9.50;99.90;;;;;;5112706;28;20176;-72
2023/04/23 05:35:04;;;;;;;27.38;20.00;;;9.50;99.90;;;;;;5114252;28;20318;-72
2023/04/23 05:37:30;;;;;;;27.43;18.83;;;9.50;99.90;;;;;;5115268;28;20199;-72
2023/04/23 05:39:57;;;;;;;28.03;19.10;;;9.60;99.90;;;;;;5114397;28;20180;-72
2023/04/23 05:42:23;;;;;;;28.83;19.93;;;9.60;99.90;;;;;;5114222;28;20667;-72
2023/04/23 05:44:48;;;;;;;29.98;21.40;;;9.50;99.90;;;;;;5113849;28;20271;-72
2023/04/23 05:47:14;;;;;;;29.10;20.77;;;9.50;99.90;;;;;;5114274;28;20658;-72
2023/04/23 05:49:40;;;;;;;28.20;20.10;;;9.50;99.90;;;;;;5112663;28;20263;-72
2023/04/23 05:52:06;;;;;;;27.67;19.53;;;9.60;99.90;;;;;;5112368;28;20185;-72
2023/04/23 05:54:32;;;;;;;30.23;20.13;;;9.70;99.90;;;;;;5114027;28;20183;-72
2023/04/23 05:56:57;;;;;;;27.90;18.17;;;9.80;99.90;;;;;;5114263;28;20200;-72
2023/04/23 05:59:23;;;;;;;27.37;19.20;;;9.90;99.90;;;;;;5112522;28;20191;-72
2023/04/23 06:01:49;;;;;;;26.27;18.38;;;10.00;99.90;;;;;;5112579;28;20177;-72
2023/04/23 06:04:15;;;;;;;27.23;19.25;;;10.20;99.90;;;;;;5115240;28;20176;-72
2023/04/23 06:06:42;;;;;;;27.02;18.00;;;10.30;99.90;;;;;;5114457;28;20193;-72
2023/04/23 06:09:08;;;;;;;27.00;19.27;;;10.50;99.90;;;;;;5122128;28;20191;-71
2023/04/23 06:11:34;;;;;;;26.15;18.58;;;10.60;99.90;;;;;;5116661;28;20189;-71
2023/04/23 06:14:01;;;;;;;25.98;18.75;;;10.70;99.90;;;;;;5117981;28;20265;-71
2023/04/23 06:16:27;;;;;;;26.10;18.10;;;11.00;99.90;;;;;;5120102;28;20613;-72
2023/04/23 06:18:55;;;;;;;24.90;18.77;;;11.20;99.90;;;;;;5113893;28;20223;-72
2023/04/23 06:21:21;;;;;;;25.38;18.17;;;11.30;99.90;;;;;;5113868;28;20543;-71
2023/04/23 06:23:47;;;;;;;25.98;18.88;;;11.40;99.90;;;;;;5113656;28;20572;-71
2023/04/23 06:26:13;;;;;;;26.42;18.80;;;11.40;99.90;;;;;;5113478;28;20193;-72
2023/04/23 06:28:41;;;;;;;24.05;18.10;;;11.40;99.90;;;;;;5113547;28;20161;-72
2023/04/23 06:31:07;;;;;;;25.40;18.15;;;11.50;99.90;;;;;;5113572;28;20173;-72
2023/04/23 06:33:35;;;;;;;22.02;17.48;;;11.70;99.90;;;;;;5113200;28;20172;-72
2023/04/23 06:36:05;;;;;;;23.58;16.88;;;11.90;99.90;;;;;;5111934;28;20684;-72
2023/04/23 06:38:31;;;;;;;21.02;16.10;;;12.20;99.90;;;;;;5115397;28;20629;-72
2023/04/23 06:40:57;;;;;;;20.67;15.43;;;12.60;99.90;;;;;;5117176;28;20183;-74
2023/04/23 06:43:23;;;;;;;20.85;15.70;;;12.60;99.90;;;;;;5116968;28;20245;-72
2023/04/23 06:45:49;;;;;;;19.88;15.02;;;12.80;99.90;;;;;;5117006;28;20196;-72
2023/04/23 06:48:15;;;;;;;18.75;13.88;;;12.80;99.90;;;;;;5115334;28;20234;-72
2023/04/23 06:50:41;;;;;;;20.13;15.50;;;13.00;99.90;;;;;;5117090;28;20229;-72
2023/04/23 06:53:07;;;;;;;14.77;11.93;;;13.20;99.90;;;;;;5115710;28;20636;-72
2023/04/23 06:55:33;;;;;;;16.23;11.60;;;13.10;99.90;;;;;;5116796;28;20185;-71
2023/04/23 06:57:58;;;;;;;16.08;11.93;;;13.20;99.90;;;;;;5117289;28;20534;-72
2023/04/23 07:00:24;;;;;;;15.32;11.75;;;13.20;99.90;;;;;;5116744;28;20188;-71
2023/04/23 07:02:50;;;;;;;14.63;11.45;;;13.20;99.90;;;;;;5116546;28;20668;-72
2023/04/23 07:05:17;;;;;;;14.48;11.57;;;13.30;99.90;;;;;;5116635;28;20226;-71
2023/04/23 07:07:43;;;;;;;15.02;11.30;;;13.30;99.90;;;;;;5117281;28;20165;-71
2023/04/23 07:10:11;;;;;;;12.73;9.93;;;13.30;99.90;;;;;;5117395;28;20592;-72
2023/04/23 07:12:38;;;;;;;13.73;11.43;;;13.30;99.90;;;;;;5115362;28;20180;-71
2023/04/23 07:15:05;;;;;;;13.25;11.00;;;13.40;99.90;;;;;;5116373;28;20172;-71
2023/04/23 07:17:31;;;;;;;15.45;12.30;;;13.40;99.90;;;;;;5114987;28;20176;-72
2023/04/23 07:19:57;;;;;;;13.27;10.63;;;13.50;99.90;;;;;;5115268;28;20177;-71
2023/04/23 07:22:25;;;;;;;16.55;10.35;;;13.50;99.90;;;;;;5116372;28;20679;-72
2023/04/23 07:24:52;;;;;;;11.60;9.55;;;13.60;99.90;;;;;;5116811;27;20256;-71
2023/04/23 07:27:18;;;;;;;14.43;10.10;;;13.60;99.90;;;;;;5115087;28;20173;-71
2023/04/23 07:29:44;;;;;;;12.93;9.32;;;13.70;99.90;;;;;;5117206;28;20161;-69
2023/04/23 07:32:09;;;;;;;12.10;9.35;;;13.80;99.90;;;;;;5116021;28;20306;-69
2023/04/23 07:34:35;;;;;;;12.80;9.07;;;13.80;99.90;;;;;;5116452;27;20184;-70
2023/04/23 07:37:02;;;;;;;12.35;8.63;;;13.90;99.90;;;;;;5116433;28;20641;-70
2023/04/23 07:39:28;;;;;;;12.68;8.93;;;14.00;99.90;;;;;;5116454;28;20173;-69
2023/04/23 07:41:55;;;;;;;11.05;9.50;;;14.00;99.90;;;;;;5116397;28;20186;-71
2023/04/23 07:44:21;;;;;;;10.70;8.77;;;14.00;99.90;;;;;;5114787;28;20168;-71
2023/04/23 07:46:47;;;;;;;11.07;8.90;;;14.00;99.90;;;;;;5114905;28;20192;-71
2023/04/23 07:49:15;;;;;;;10.52;8.48;;;14.10;99.90;;;;;;5115156;28;20160;-71
2023/04/23 07:51:44;;;;;;;9.88;7.82;;;14.00;99.90;;;;;;5116208;28;20247;-70
2023/04/23 07:54:10;;;;;;;11.93;8.10;;;14.10;99.90;;;;;;5115233;28;20196;-71
2023/04/23 07:56:36;;;;;;;10.93;8.20;;;14.20;99.90;;;;;;5117167;28;20199;-71
2023/04/23 07:59:04;;;;;;;9.45;8.25;;;14.40;99.90;;;;;;5114346;28;20591;-70
2023/04/23 08:01:31;;;;;;;12.48;7.82;;;14.50;99.90;;;;;;5115847;28;20188;-69
2023/04/23 08:03:59;;;;;;;10.07;8.13;;;14.60;99.90;;;;;;5114086;28;20543;-69
2023/04/23 08:06:25;;;;;;;12.25;7.85;;;14.50;99.90;;;;;;5095474;28;20200;-69
2023/04/23 08:08:52;;;;;;;9.25;8.23;;;14.60;99.90;;;;;;5095169;28;20169;-69
2023/04/23 08:11:18;;;;;;;8.18;6.57;;;14.70;99.90;;;;;;5095195;28;20165;-69
2023/04/23 08:13:44;;;;;;;10.02;6.80;;;14.70;99.90;;;;;;5095496;28;20164;-69
2023/04/23 08:16:09;;;;;;;8.20;6.90;;;15.00;99.90;;;;;;5094771;28;20279;-69
2023/04/23 08:18:35;;;;;;;8.02;7.07;;;15.20;99.90;;;;;;5094779;28;20238;-69
2023/04/23 08:21:01;;;;;;;10.07;6.70;;;15.40;99.90;;;;;;5096388;28;20223;-71
2023/04/23 08:23:27;;;;;;;8.48;6.38;;;15.90;99.90;;;;;;5094721;28;20201;-71
2023/04/23 08:25:52;;;;;;;9.07;6.40;;;16.50;99.90;;;;;;5093703;28;20196;-71
2023/04/23 08:28:18;;;;;;;9.43;5.97;;;17.40;99.90;;;;;;5093757;28;20641;-76
2023/04/23 08:30:45;;;;;;;11.93;7.03;;;17.90;99.90;;;;;;5095430;28;20656;-71
2023/04/23 08:33:11;;;;;;;9.27;6.28;;;17.40;99.90;;;;;;5093460;28;20216;-71
2023/04/23 08:35:37;;;;;;;7.53;5.70;;;17.40;99.90;;;;;;5108898;28;20208;-73
2023/04/23 08:38:02;;;;;;;8.48;6.22;;;17.70;99.90;;;;;;5115684;28;20633;-72
2023/04/23 08:40:31;;;;;;;6.07;5.47;;;18.00;99.90;;;;;;5115177;28;20222;-73
2023/04/23 08:43:15;;;;;;;5.97;5.38;;;18.40;99.90;;;;;;5113729;28;20207;-71
2023/04/23 08:45:44;;;;;;;9.82;5.03;;;19.90;99.90;;;;;;5113354;28;20229;-71
2023/04/23 08:48:10;;;;;;;6.70;4.15;;;20.30;99.90;;;;;;5113252;28;20210;-72
2023/04/23 08:50:41;;;;;;;7.50;4.80;;;19.80;99.90;;;;;;5113593;28;20176;-71
2023/04/23 08:53:07;;;;;;;8.68;5.38;;;18.20;99.90;;;;;;5115236;28;20160;-71
2023/04/23 08:55:34;;;;;;;10.10;5.22;;;18.20;99.90;;;;;;5115068;28;20196;-71
2023/04/23 08:58:01;;;;;;;8.68;5.80;;;18.30;99.90;;;;;;5113574;28;20196;-71
2023/04/23 09:00:28;;;;;;;6.15;4.68;;;18.80;99.90;;;;;;5113042;28;20192;-71
2023/04/23 09:02:54;;;;;;;6.88;4.90;;;19.00;99.90;;;;;;5114486;28;20279;-71
2023/04/23 09:05:20;;;;;;;6.43;5.22;;;18.30;99.90;;;;;;5114353;27;20287;-71
2023/04/23 09:07:46;;;;;;;6.53;5.13;;;18.30;99.90;;;;;;5115099;28;20207;-71
2023/04/23 09:10:13;;;;;;;8.98;5.68;;;18.10;99.90;;;;;;5114539;28;20172;-71
2023/04/23 09:12:41;;;;;;;6.90;5.00;;;18.40;99.90;;;;;;5113838;28;20180;-71
2023/04/23 09:15:11;;;;;;;6.38;4.60;;;18.20;99.90;;;;;;5114778;28;20295;-71
2023/04/23 09:17:42;;;;;;;7.82;4.75;;;17.40;99.90;;;;;;5114395;28;20168;-71
2023/04/23 09:20:10;;;;;;;7.43;4.03;;;17.10;99.90;;;;;;5114360;28;20176;-71
2023/04/23 09:22:51;;;;;;;6.03;4.53;;;17.50;99.90;;;;;;5114613;28;20200;-73
2023/04/23 09:25:22;;;;;;;6.50;4.07;;;16.80;99.90;;;;;;5114557;28;20237;-73
2023/04/23 09:27:50;;;;;;;7.80;3.80;;;16.10;99.90;;;;;;5113035;28;20263;-73
2023/04/23 09:30:17;;;;;;;10.68;4.82;;;15.90;99.90;;;;;;5113124;28;20176;-73
2023/04/23 09:32:45;;;;;;;5.90;4.00;;;16.40;99.90;;;;;;5112724;28;20183;-73
2023/04/23 09:35:15;;;;;;;10.02;4.43;;;16.90;99.90;;;;;;5114089;28;20200;-73
2023/04/23 09:37:51;;;;;;;6.00;4.15;;;17.60;99.90;;;;;;5112907;28;20573;-73
2023/04/23 09:40:19;;;;;;;5.32;3.80;;;17.50;99.90;;;;;;5114058;28;20247;-73
2023/04/23 09:42:49;;;;;;;7.07;3.72;;;17.80;99.90;;;;;;5113666;28;20269;-74
2023/04/23 09:45:15;;;;;;;9.52;4.10;;;18.20;99.90;;;;;;5113782;28;20192;-74
2023/04/23 09:47:48;;;;;;;7.72;3.90;;;17.80;99.90;;;;;;5113818;28;20193;-74
2023/04/23 09:50:14;;;;;;;7.25;3.80;;;17.30;99.90;;;;;;5114082;28;20159;-73
2023/04/23 09:52:40;;;;;;;4.35;3.22;;;17.40;99.90;;;;;;5114035;28;20172;-73
2023/04/23 09:55:06;;;;;;;7.43;3.67;;;17.80;99.90;;;;;;5114201;28;20169;-73
2023/04/23 09:57:40;;;;;;;6.13;3.60;;;17.70;99.90;;;;;;5114085;28;20176;-73
2023/04/23 10:00:17;;;;;;;6.78;3.60;;;17.90;99.90;;;;;;5113947;28;20265;-74
2023/04/23 10:02:48;;;;;;;4.80;3.60;;;18.20;99.90;;;;;;5114285;28;20184;-73
2023/04/23 10:05:21;;;;;;;6.72;3.97;;;18.40;99.90;;;;;;5113611;28;20204;-74
2023/04/23 10:07:47;;;;;;;3.42;3.13;;;18.60;99.90;;;;;;5114524;28;20169;-73
2023/04/23 10:10:18;;;;;;;4.57;3.35;;;18.50;99.90;;;;;;5112456;28;20172;-73
2023/04/23 10:12:44;;;;;;;4.57;3.28;;;18.20;99.90;;;;;;5116083;28;20175;-75
2023/04/23 10:15:11;;;;;;;3.55;3.10;;;17.90;99.90;;;;;;5118803;28;20203;-73
2023/04/23 10:17:38;;;;;;;6.50;2.92;;;18.40;99.90;;;;;;5117954;28;20200;-73
2023/04/23 10:20:06;;;;;;;5.22;3.15;;;18.60;99.90;;;;;;5118442;28;20202;-73
2023/04/23 10:22:33;;;;;;;8.75;3.42;;;18.50;99.90;;;;;;5123592;28;20259;-73
2023/04/23 10:25:03;;;;;;;3.58;2.90;;;18.10;99.90;;;;;;5124218;28;20180;-73
2023/04/23 10:27:30;;;;;;;5.80;3.08;;;18.10;99.90;;;;;;5127723;28;20273;-73
2023/04/23 10:29:57;;;;;;;5.68;2.97;;;18.20;99.90;;;;;;5121035;28;20187;-73
2023/04/23 10:32:23;;;;;;;4.05;2.70;;;18.10;99.90;;;;;;5117896;28;20172;-73
2023/04/23 10:34:49;;;;;;;3.67;3.08;;;17.80;99.90;;;;;;5118436;27;20585;-73
2023/04/23 10:37:18;;;;;;;3.83;3.35;;;17.80;99.90;;;;;;5117536;28;20176;-73
2023/04/23 10:39:48;;;;;;;2.97;2.72;;;17.40;99.90;;;;;;5115958;28;20218;-73
2023/04/23 10:42:15;;;;;;;5.05;2.90;;;17.50;99.90;;;;;;5117244;28;20188;-73
2023/04/23 10:44:42;;;;;;;5.57;3.15;;;17.70;99.90;;;;;;5117302;28;20260;-73
2023/04/23 10:47:13;;;;;;;4.15;2.95;;;17.70;99.90;;;;;;5117324;28;20211;-73
2023/04/23 10:49:39;;;;;;;3.10;2.80;;;18.10;99.90;;;;;;5116092;28;20173;-73
2023/04/23 10:52:17;;;;;;;5.45;3.28;;;17.70;99.90;;;;;;5117522;28;20179;-73
2023/04/23 10:54:48;;;;;;;6.05;2.90;;;17.70;99.90;;;;;;5115869;28;20574;-73
2023/04/23 10:57:14;;;;;;;3.60;2.90;;;17.60;99.90;;;;;;5117542;28;20181;-73
2023/04/23 10:59:51;;;;;;;3.03;2.60;;;17.50;99.90;;;;;;5118296;28;20188;-73
2023/04/23 11:02:17;;;;;;;4.32;2.90;;;17.50;99.90;;;;;;5116925;28;20203;-73
2023/04/23 11:05:05;;;;;;;3.22;2.83;;;17.50;99.90;;;;;;5117036;28;20675;-73
2023/04/23 11:07:32;;;;;;;4.15;2.58;;;17.30;99.90;;;;;;5117622;28;20152;-73
2023/04/23 11:09:59;;;;;;;4.63;2.85;;;17.40;99.90;;;;;;5116707;28;20243;-73
2023/04/23 11:12:34;;;;;;;2.97;2.67;;;17.40;99.90;;;;;;5117239;28;20181;-73
2023/04/23 11:15:12;;;;;;;4.50;3.00;;;17.40;99.90;;;;;;5116882;28;20156;-73
2023/04/23 11:17:38;;;;;;;7.35;2.80;;;17.40;99.90;;;;;;5115197;28;20179;-73
2023/04/23 11:20:12;;;;;;;3.20;2.60;;;17.50;99.90;;;;;;5116398;28;20648;-73
2023/04/23 11:22:43;;;;;;;6.07;2.70;;;17.50;99.90;;;;;;5114972;28;20276;-73
2023/04/23 11:25:10;;;;;;;4.75;2.90;;;17.40;99.90;;;;;;5114565;28;20211;-73
2023/04/23 11:27:42;;;;;;;4.78;2.90;;;17.50;99.90;;;;;;5116284;28;20164;-73
2023/04/23 11:30:19;;;;;;;4.55;2.88;;;17.50;99.90;;;;;;5116382;28;20629;-73
2023/04/23 11:32:47;;;;;;;3.22;2.88;;;17.50;99.90;;;;;;5116001;28;20643;-73
2023/04/23 11:35:14;;;;;;;6.53;2.90;;;17.50;99.90;;;;;;5116114;28;20565;-73
2023/04/23 11:37:40;;;;;;;3.58;2.80;;;17.50;99.90;;;;;;5114895;28;20184;-73
2023/04/23 11:40:12;;;;;;;4.20;2.78;;;17.60;99.90;;;;;;5115990;28;20183;-73
2023/04/23 11:42:46;;;;;;;4.88;2.90;;;17.60;99.90;;;;;;5114807;28;20197;-73
2023/04/23 11:45:25;;;;;;;4.13;2.78;;;17.50;99.90;;;;;;5115659;28;20198;-74
2023/04/23 11:47:56;;;;;;;5.07;2.92;;;17.70;99.90;;;;;;5114747;28;20179;-75
2023/04/23 11:50:23;;;;;;;2.90;2.63;;;17.80;99.90;;;;;;5116229;28;20152;-73
2023/04/23 11:52:49;;;;;;;3.70;3.08;;;17.90;99.90;;;;;;5117118;28;20583;-69
2023/04/23 11:55:16;;;;;;;4.93;3.10;;;18.10;99.90;;;;;;5114604;28;20193;-69
2023/04/23 11:57:43;;;;;;;3.28;2.58;;;17.90;99.90;;;;;;5114415;28;20180;-70
2023/04/23 12:00:25;;;;;;;3.20;2.90;;;17.80;99.90;;;;;;5115407;28;20539;-70
2023/04/23 12:02:52;;;;;;;3.67;2.50;;;17.80;99.90;;;;;;5115744;28;20188;-70
2023/04/23 12:05:29;;;;;;;2.72;2.53;;;17.80;99.90;;;;;;5114280;28;20290;-69
2023/04/23 12:08:14;;;;;;;3.08;2.78;;;17.60;99.90;;;;;;5114201;28;20172;-70
2023/04/23 12:10:53;;;;;;;2.70;2.50;;;17.70;99.90;;;;;;5114255;28;20164;-70
2023/04/23 12:13:23;;;;;;;3.95;2.80;;;17.60;99.90;;;;;;5116193;28;20621;-70
2023/04/23 12:15:51;;;;;;;2.80;2.60;;;17.60;99.90;;;;;;5114565;28;20200;-70
2023/04/23 12:18:18;;;;;;;2.90;2.30;;;17.50;99.90;;;;;;5115917;28;20188;-69
2023/04/23 12:20:45;;;;;;;4.22;2.53;;;17.60;99.90;;;;;;5115031;28;20668;-70
2023/04/23 12:23:10;;;;;;;3.05;2.50;;;17.60;99.90;;;;;;5113728;28;20200;-70
2023/04/23 12:25:39;;;;;;;3.92;2.42;;;17.40;99.90;;;;;;5113823;28;20188;-69
2023/04/23 12:28:07;;;;;;;2.33;2.00;;;17.40;99.90;;;;;;5113781;28;20633;-70
2023/04/23 12:30:41;;;;;;;2.10;2.00;;;17.40;99.90;;;;;;5113900;28;20172;-69
2023/04/23 12:33:10;;;;;;;2.25;2.08;;;17.40;99.90;;;;;;5113579;28;20667;-71
2023/04/23 12:35:42;;;;;;;2.75;2.22;;;17.50;99.90;;;;;;5115153;28;20583;-74
2023/04/23 12:38:24;;;;;;;2.58;2.38;;;17.70;99.90;;;;;;5116358;28;20172;-72